Flight Track Log - Related Links

Times and Time Zones

All times are in EDT time to prevent confusion due to time zone crossing. See the N240JK flight status page for this flight to view local times or setup timezone preferences in your user account.

Time Position Orientation Groundspeed Altitude Reporting Facility
EDT Latitude Longitude Course Direction KTS MPH feet Rate Location/Type
Sun 01:13:54 PM 43.0333 -88.3000 236° Southwest 206 237 2,800  Level KMKE
Sun 01:14:48 PM 42.9667 -88.2833 170° South 270 311 4,500 1,786 Climbing KMKE
Sun 01:15:18 PM 42.9475 -88.2497 128° Southeast 270 311 5,300 2,242 Climbing Chicago Center
Sun 01:16:19 PM 42.9558 -88.1206 85° East 291 335 7,900 2,244 Climbing Chicago Center
Sun 01:17:21 PM 42.9656 -88.0022 84° East 310 357 9,900 1,839 Climbing Chicago Center
Sun 01:18:23 PM 42.9733 -87.8794 85° East 323 372 11,700 1,968 Climbing Chicago Center
Sun 01:19:26 PM 42.9789 -87.7497 87° East 339 390 14,000 2,304 Climbing Chicago Center
Sun 01:20:28 PM 42.9875 -87.6200 85° East 342 394 16,500 2,565 Climbing Chicago Center
Sun 01:21:30 PM 42.9981 -87.4675 85° East 346 398 19,300 2,081 Climbing Chicago Center
Sun 01:22:32 PM 42.9944 -87.3503 92° East 368 423 20,800 1,790 Climbing Chicago Center
Sun 01:23:34 PM 42.9253 -87.2036 123° Southeast 385 443 23,000 1,984 Climbing Chicago Center
Sun 01:24:36 PM 42.8711 -87.0753 120° Southeast 391 450 24,900 1,742 Climbing Chicago Center
Sun 01:25:38 PM 42.8161 -86.9425 119° Southeast 401 461 26,600 1,645 Climbing Chicago Center
Sun 01:26:40 PM 42.7611 -86.8106 120° Southeast 403 464 28,300 1,597 Climbing Chicago Center
Sun 01:27:42 PM 42.7181 -86.6664 112° Southeast 412 474 29,900 1,887 Climbing Chicago Center
Sun 01:28:44 PM 42.6842 -86.4858 104° East 415 478 32,200 2,177 Climbing Chicago Center
Sun 01:29:46 PM 42.6564 -86.3372 104° East 411 473 34,400 2,098 Climbing Chicago Center
Sun 01:30:47 PM 42.6333 -86.1917 102° East 402 463 36,500 1,268 Climbing Chicago Center
Sun 01:31:49 PM 42.5719 -86.0650 123° Southeast 415 478 37,000 581 Climbing Chicago Center
Sun 01:32:51 PM 42.5033 -85.9428 127° Southeast 414 476 37,700 968 Climbing Chicago Center
Sun 01:33:53 PM 42.4242 -85.7944 126° Southeast 407 468 39,000 629 Climbing Chicago Center
Sun 01:34:55 PM 42.3567 -85.6717 127° Southeast 408 470 39,000  Level Chicago Center
Sun 01:35:57 PM 42.2897 -85.5486 126° Southeast 410 472 39,000  Level Chicago Center
Sun 01:36:59 PM 42.2228 -85.4269 127° Southeast 407 468 39,000  Level Chicago Center
Sun 01:38:01 PM 42.1561 -85.3039 126° Southeast 408 470 39,000  Level Chicago Center
Sun 01:39:03 PM 42.0878 -85.1786 126° Southeast 409 471 39,000  Level Chicago Center
Sun 01:40:06 PM 42.0078 -85.0333 127° Southeast 405 466 39,000  Level Chicago Center
Sun 01:41:08 PM 41.9467 -84.9233 127° Southeast 401 461 39,000  Level Chicago Center
Sun 01:42:10 PM 41.8781 -84.8025 127° Southeast 403 464 39,000  Level Chicago Center
Sun 01:43:12 PM 41.8103 -84.6853 128° Southeast 399 459 39,000  Level Chicago Center
Sun 01:43:47 PM 41.7683 -84.6064 125° Southeast 402 463 39,000  Level Cleveland Center
Sun 01:44:47 PM 41.7014 -84.4911 128° Southeast 402 463 39,000  Level Cleveland Center
Sun 01:45:47 PM 41.6344 -84.3731 127° Southeast 397 457 39,000  Level Cleveland Center
Sun 01:46:18 PM 41.5953 -84.3078 129° Southeast 398 458 39,000  Level Chicago Center
Sun 01:47:20 PM 41.5278 -84.1908 128° Southeast 397 457 39,000  Level Chicago Center
Sun 01:48:22 PM 41.4608 -84.0739 127° Southeast 397 457 39,000  Level Chicago Center
Sun 01:49:24 PM 41.3931 -83.9572 128° Southeast 396 456 39,000  Level Chicago Center
Sun 01:50:26 PM 41.3256 -83.8414 128° Southeast 396 456 39,000  Level Chicago Center
Sun 01:51:28 PM 41.2433 -83.7025 128° Southeast 397 457 39,000  Level Chicago Center
Sun 01:52:47 PM 41.1561 -83.5617 129° Southeast 402 463 39,000  Level Cleveland Center
Sun 01:53:23 PM 41.1111 -83.4778 125° Southeast 400 460 39,000  Level Indianapolis Center
Sun 01:54:25 PM 41.0417 -83.3622 129° Southeast 401 461 39,000  Level Indianapolis Center
Sun 01:55:26 PM 40.9728 -83.2456 128° Southeast 399 459 39,000  Level Indianapolis Center
Sun 01:56:28 PM 40.9044 -83.1308 128° Southeast 396 456 39,000  Level Indianapolis Center
Sun 01:57:30 PM 40.8350 -83.0153 128° Southeast 397 457 39,000  Level Indianapolis Center
Sun 01:58:32 PM 40.7672 -82.8994 128° Southeast 397 457 39,000  Level Indianapolis Center
Sun 01:59:33 PM 40.6981 -82.7850 129° Southeast 397 457 39,000  Level Indianapolis Center
Sun 02:00:35 PM 40.6289 -82.6703 128° Southeast 399 459 39,000  Level Indianapolis Center
Sun 02:01:37 PM 40.5481 -82.5375 129° Southeast 397 457 39,000  Level Indianapolis Center
Sun 02:02:39 PM 40.4781 -82.4233 129° Southeast 398 458 39,000  Level Indianapolis Center
Sun 02:03:40 PM 40.4100 -82.3108 128° Southeast 394 453 39,000  Level Indianapolis Center
Sun 02:04:42 PM 40.3411 -82.2000 129° Southeast 390 449 39,000  Level Indianapolis Center
Sun 02:05:44 PM 40.2731 -82.0889 129° Southeast 389 448 39,000  Level Indianapolis Center
Sun 02:06:45 PM 40.2006 -81.9719 129° Southeast 389 448 39,000  Level Indianapolis Center
Sun 02:07:47 PM 40.1314 -81.8608 129° Southeast 390 449 39,000  Level Indianapolis Center
Sun 02:08:49 PM 40.0675 -81.7581 129° Southeast 386 444 39,000  Level Indianapolis Center
Sun 02:09:50 PM 39.9881 -81.6300 129° Southeast 386 444 39,000  Level Indianapolis Center
Sun 02:10:52 PM 39.9264 -81.5319 129° Southeast 383 441 39,000  Level Indianapolis Center
Sun 02:11:54 PM 39.8561 -81.4175 129° Southeast 387 445 39,000  Level Indianapolis Center
Sun 02:12:55 PM 39.7875 -81.3094 130° Southeast 387 445 39,000  Level Indianapolis Center
Sun 02:13:57 PM 39.7178 -81.2006 130° Southeast 390 449 39,000  Level Indianapolis Center
Sun 02:15:35 PM 39.5972 -81.0086 129° Southeast 388 447 39,000  Level Cleveland Center
Sun 02:16:35 PM 39.5269 -80.8978 129° Southeast 388 447 39,000  Level Cleveland Center
Sun 02:17:35 PM 39.4542 -80.7875 131° Southeast 388 447 39,000  Level Cleveland Center
Sun 02:19:06 PM 39.3489 -80.6256 130° Southeast 397 457 39,000  Level Indianapolis Center
Sun 02:20:50 PM 39.2306 -80.4392 129° Southeast 396 456 39,000  Level Washington Center
Sun 02:21:52 PM 39.1619 -80.3300 129° Southeast 396 456 39,000  Level Washington Center
Sun 02:22:50 PM 39.0911 -80.2211 130° Southeast 396 456 39,000  Level Washington Center
Sun 02:23:50 PM 39.0100 -80.1092 133° Southeast 396 456 39,000  Level Washington Center
Sun 02:24:51 PM 38.9389 -80.0006 130° Southeast 396 456 39,000  Level Washington Center
Sun 02:25:51 PM 38.8717 -79.9033 132° Southeast 396 456 39,000  Level Washington Center
Sun 02:26:52 PM 38.7872 -79.8131 140° Southeast 396 456 39,000  Level Washington Center
Sun 02:27:50 PM 38.7008 -79.7178 139° Southeast 401 461 39,000  Level Washington Center
Sun 02:28:50 PM 38.6083 -79.6142 139° Southeast 401 461 39,000  Level Washington Center
Sun 02:29:51 PM 38.5261 -79.5194 138° Southeast 401 461 39,000  Level Washington Center
Sun 02:30:52 PM 38.4414 -79.4275 140° Southeast 401 461 39,000  Level Washington Center
Sun 02:31:50 PM 38.3569 -79.3331 139° Southeast 401 461 39,000 -101 Level Washington Center
Sun 02:32:51 PM 38.2803 -79.2500 140° Southeast 401 461 38,800 -541 Descending Washington Center
Sun 02:33:52 PM 38.1911 -79.1608 142° Southeast 406 467 37,900 -1,059 Descending Washington Center
Sun 02:34:50 PM 38.1019 -79.0722 142° Southeast 411 473 36,700 -1,563 Descending Washington Center
Sun 02:35:51 PM 38.0169 -78.9786 139° Southeast 405 466 34,800 -1,884 Descending Washington Center
Sun 02:36:51 PM 37.9364 -78.8750 135° Southeast 405 466 32,900 -1,884 Descending Washington Center
Sun 02:37:52 PM 37.8603 -78.7586 130° Southeast 399 459 31,000 -1,008 Descending Washington Center
Sun 02:38:50 PM 37.8061 -78.6750 129° Southeast 393 452 30,900 -1,109 Descending Washington Center
Sun 02:39:51 PM 37.7200 -78.5347 128° Southeast 405 466 28,800 -1,426 Descending Washington Center
Sun 02:40:52 PM 37.6500 -78.4114 126° Southeast 417 480 28,000 -555 Descending Washington Center
Sun 02:41:50 PM 37.5878 -78.3069 127° Southeast 425 489 27,700 -857 Descending Washington Center
Sun 02:42:51 PM 37.5175 -78.1892 127° Southeast 425 489 26,300 -1,488 Descending Washington Center
Sun 02:43:51 PM 37.4344 -78.0608 129° Southeast 425 489 24,700 -1,537 Descending Washington Center
Sun 02:44:52 PM 37.3575 -77.9539 132° Southeast 425 489 23,200 -1,160 Descending Washington Center
Sun 02:45:50 PM 37.2758 -77.8625 138° Southeast 410 472 22,400 -1,563 Descending Washington Center
Sun 02:46:51 PM 37.1981 -77.7717 137° Southeast 392 451 20,100 -2,016 Descending Washington Center
Sun 02:47:52 PM 37.1353 -77.6683 127° Southeast 365 420 18,300 -1,462 Descending Washington Center
Sun 02:48:50 PM 37.0786 -77.5703 126° Southeast 371 427 17,200 -661 Descending Washington Center
Sun 02:49:50 PM 37.0156 -77.4594 125° Southeast 382 440 17,000 -99 Descending Washington Center
Sun 02:50:51 PM 36.9528 -77.3514 126° Southeast 382 440 17,000 50 Level Washington Center
Sun 02:51:49 PM 36.8833 -77.2356 127° Southeast 391 450 17,100  Climbing Washington Center
Sun 02:52:50 PM 36.8242 -77.1331 126° Southeast 392 451 17,000 -49 Descending Washington Center
Sun 02:53:51 PM 36.7608 -77.0231 126° Southeast 392 451 17,000  Level Washington Center
Sun 02:54:52 PM 36.6975 -76.9131 126° Southeast 392 451 17,000  Level Washington Center
Sun 02:55:22 PM 36.6564 -76.8478 128° Southeast 395 455 17,000 -66 Level Washington Center
Sun 02:56:23 PM 36.5908 -76.7328 125° Southeast 394 453 16,900 -1,304 Descending Washington Center
Sun 02:57:17 PM 36.5394 -76.6467 127° Southeast 348 400 14,500 -2,690 Descending Washington Center
Sun 02:57:50 PM 36.5067 -76.5894 125° Southeast 373 429 13,000 -2,617 Descending Washington Center
Sun 02:58:51 PM 36.4594 -76.4933 121° Southeast 347 399 10,400 -2,016 Descending Washington Center
Sun 02:59:52 PM 36.4308 -76.3975 110° East 316 364 8,900 -2,132 Descending Washington Center
Sun 03:00:52 PM 36.3728 -76.3350 139° Southeast 271 312 6,100 -2,554 Descending Washington Center
Sun 03:02:20 PM 36.2750 -76.2928 161° South 237 273 2,600 -1,858 Descending Washington Center
Sun 03:03:27 PM 36.2564 -76.2386 113° Southeast 169 194 1,300 -850 Descending Washington Center
Sun 03:04:27 PM 36.2650 -76.1975 75° East 163 188 800 -500 Descending Washington Center

Login

Don't have an account? Register now (free) for customized features, flight alerts, and more!